Time;durP1;ratioP1;P1;durP2;ratioP2;P2;SDS_P1;SDS_P2;PMS_P1;PMS_P2;Temp;Humidity;BMP_temperature;BMP_pressure;BME280_temperature;BME280_humidity;BME280_pressure;Samples;Min_cycle;Max_cycle;Signal;HPM_P1;HPM_P2
2022/03/24 00:02:17;;;;;;;32.63;15.85;;;;;;;;;;5085110;28;20427;-47
2022/03/24 00:04:42;;;;;;;34.05;16.73;;;;;;;;;;5091912;28;20034;-48
2022/03/24 00:07:08;;;;;;;34.97;16.20;;;;;;;;;;5078708;28;20021;-47
2022/03/24 00:09:34;;;;;;;35.40;16.38;;;;;;;;;;5079029;28;20103;-47
2022/03/24 00:12:00;;;;;;;38.33;17.60;;;;;;;;;;5076730;28;20033;-47
2022/03/24 00:14:27;;;;;;;32.10;16.35;;;;;;;;;;5085663;28;20054;-48
2022/03/24 00:16:53;;;;;;;32.63;15.88;;;;;;;;;;5086234;28;20028;-47
2022/03/24 00:19:19;;;;;;;34.20;16.65;;;;;;;;;;5088051;28;20561;-49
2022/03/24 00:21:46;;;;;;;32.92;16.20;;;;;;;;;;5084234;28;20030;-47
2022/03/24 00:24:12;;;;;;;35.72;17.33;;;;;;;;;;5082510;28;20423;-47
2022/03/24 00:26:38;;;;;;;42.58;16.10;;;;;;;;;;5086049;28;20074;-51
2022/03/24 00:29:05;;;;;;;39.15;17.75;;;;;;;;;;5083145;28;20028;-50
2022/03/24 00:31:31;;;;;;;35.05;17.67;;;;;;;;;;5081078;28;20111;-47
2022/03/24 00:33:57;;;;;;;38.53;17.27;;;;;;;;;;5082579;28;20035;-48
2022/03/24 00:36:23;;;;;;;35.75;16.98;;;;;;;;;;5082461;28;20078;-47
2022/03/24 00:38:52;;;;;;;34.55;16.10;;;;;;;;;;5080229;28;20028;-47
2022/03/24 00:41:19;;;;;;;35.40;16.48;;;;;;;;;;5083005;28;20074;-47
2022/03/24 00:43:45;;;;;;;34.42;15.82;;;;;;;;;;5086369;28;20035;-47
2022/03/24 00:46:11;;;;;;;33.13;16.92;;;;;;;;;;5072890;28;20024;-50
2022/03/24 00:48:37;;;;;;;33.67;15.93;;;;;;;;;;5087813;28;20051;-47
2022/03/24 00:51:05;;;;;;;40.00;17.92;;;;;;;;;;5080862;28;20032;-47
2022/03/24 00:53:31;;;;;;;35.45;17.65;;;;;;;;;;5081062;28;20032;-51
2022/03/24 00:55:58;;;;;;;35.08;16.98;;;;;;;;;;5079312;28;20012;-48
2022/03/24 00:58:24;;;;;;;42.95;18.40;;;;;;;;;;5082412;28;20077;-49
2022/03/24 01:00:50;;;;;;;34.42;17.13;;;;;;;;;;5081823;28;20387;-47
2022/03/24 01:03:16;;;;;;;41.63;17.80;;;;;;;;;;5093767;28;20032;-47
2022/03/24 01:05:42;;;;;;;33.42;15.63;;;;;;;;;;5091892;28;20118;-48
2022/03/24 01:08:08;;;;;;;34.42;16.17;;;;;;;;;;5084715;28;20044;-47
2022/03/24 01:10:35;;;;;;;39.38;17.13;;;;;;;;;;5088258;28;20067;-48
2022/03/24 01:13:01;;;;;;;35.42;16.63;;;;;;;;;;5076827;28;20017;-50
2022/03/24 01:15:30;;;;;;;35.38;15.75;;;;;;;;;;5084021;28;20043;-48
2022/03/24 01:17:59;;;;;;;40.70;19.02;;;;;;;;;;5090625;28;20024;-47
2022/03/24 01:20:26;;;;;;;37.50;17.60;;;;;;;;;;5095444;28;20081;-47
2022/03/24 01:22:52;;;;;;;39.42;16.67;;;;;;;;;;5078682;28;20461;-47
2022/03/24 01:25:18;;;;;;;36.63;16.98;;;;;;;;;;5089091;28;20099;-47
2022/03/24 01:27:44;;;;;;;40.25;18.38;;;;;;;;;;5081304;28;20029;-47
2022/03/24 01:30:11;;;;;;;33.28;16.60;;;;;;;;;;5092646;28;20038;-51
2022/03/24 01:32:37;;;;;;;33.45;16.33;;;;;;;;;;5085597;28;20107;-49
2022/03/24 01:35:07;;;;;;;33.40;16.10;;;;;;;;;;5087410;28;20035;-50
2022/03/24 01:37:33;;;;;;;38.05;17.90;;;;;;;;;;5079652;28;20044;-52
2022/03/24 01:39:59;;;;;;;36.78;16.40;;;;;;;;;;5092038;28;20081;-51
2022/03/24 01:42:26;;;;;;;34.88;17.27;;;;;;;;;;5090024;28;20032;-47
2022/03/24 01:44:54;;;;;;;36.05;16.48;;;;;;;;;;5091191;28;20407;-47
2022/03/24 01:47:20;;;;;;;35.75;17.05;;;;;;;;;;5077275;28;20469;-47
2022/03/24 01:49:50;;;;;;;33.20;16.23;;;;;;;;;;5083993;28;20338;-47
2022/03/24 01:52:18;;;;;;;35.58;16.90;;;;;;;;;;5084796;28;20024;-46
2022/03/24 01:54:45;;;;;;;35.58;16.67;;;;;;;;;;5092588;28;20059;-48
2022/03/24 01:57:12;;;;;;;36.95;17.20;;;;;;;;;;5083380;28;20028;-47
2022/03/24 01:59:38;;;;;;;36.00;16.67;;;;;;;;;;5081849;28;20066;-47
2022/03/24 02:02:08;;;;;;;33.05;16.67;;;;;;;;;;5089582;28;20078;-47
2022/03/24 02:04:38;;;;;;;40.08;16.85;;;;;;;;;;5086096;28;20028;-46
2022/03/24 02:07:05;;;;;;;34.38;17.75;;;;;;;;;;5092774;28;20032;-47
2022/03/24 02:09:31;;;;;;;36.22;17.20;;;;;;;;;;5082973;28;20036;-46
2022/03/24 02:11:57;;;;;;;32.80;16.67;;;;;;;;;;5086509;28;20020;-49
2022/03/24 02:14:23;;;;;;;38.05;17.48;;;;;;;;;;5087519;28;20031;-47
2022/03/24 02:16:50;;;;;;;39.40;17.63;;;;;;;;;;5085582;28;20028;-48
2022/03/24 02:19:21;;;;;;;39.17;17.83;;;;;;;;;;5083319;28;20032;-48
2022/03/24 02:21:47;;;;;;;40.13;18.42;;;;;;;;;;5088617;28;20085;-48
2022/03/24 02:24:14;;;;;;;36.30;17.10;;;;;;;;;;5083514;28;20699;-47
2022/03/24 02:26:42;;;;;;;40.28;17.23;;;;;;;;;;5084059;28;20108;-47
2022/03/24 02:29:10;;;;;;;37.53;17.50;;;;;;;;;;5086593;28;20492;-46
2022/03/24 02:31:40;;;;;;;37.83;17.38;;;;;;;;;;5077657;28;20032;-46
2022/03/24 02:36:54;;;;;;;34.88;16.08;;;;;;;;;;5081304;28;20096;-46
2022/03/24 02:39:20;;;;;;;36.55;16.40;;;;;;;;;;5089305;28;20564;-46
2022/03/24 02:41:51;;;;;;;38.10;17.02;;;;;;;;;;5083035;28;20049;-48
2022/03/24 02:44:17;;;;;;;40.70;17.65;;;;;;;;;;5082263;28;20029;-46
2022/03/24 02:46:47;;;;;;;36.53;16.70;;;;;;;;;;5081595;28;20283;-47
2022/03/24 02:49:14;;;;;;;40.72;18.50;;;;;;;;;;5076944;28;20089;-46
2022/03/24 02:51:40;;;;;;;37.28;18.33;;;;;;;;;;5077674;28;20025;-49
2022/03/24 02:54:06;;;;;;;36.47;17.88;;;;;;;;;;5087904;28;20048;-47
2022/03/24 02:56:32;;;;;;;39.63;17.65;;;;;;;;;;5076093;28;20033;-48
2022/03/24 02:58:58;;;;;;;36.10;16.90;;;;;;;;;;5083795;28;20095;-46
2022/03/24 03:01:25;;;;;;;38.03;18.23;;;;;;;;;;5084786;28;20024;-47
2022/03/24 03:03:52;;;;;;;45.95;19.88;;;;;;;;;;5079989;28;20036;-51
2022/03/24 03:06:19;;;;;;;41.17;17.80;;;;;;;;;;5088926;28;21045;-49
2022/03/24 03:08:45;;;;;;;38.60;18.17;;;;;;;;;;5085751;28;20035;-52
2022/03/24 03:11:11;;;;;;;42.25;20.23;;;;;;;;;;5082278;28;20032;-46
2022/03/24 03:13:37;;;;;;;39.63;17.13;;;;;;;;;;5084649;28;20028;-47
2022/03/24 03:16:04;;;;;;;40.38;18.63;;;;;;;;;;5092035;28;20069;-46
2022/03/24 03:18:32;;;;;;;43.28;21.17;;;;;;;;;;5087441;28;20119;-47
2022/03/24 03:20:58;;;;;;;43.58;19.80;;;;;;;;;;5091443;28;20031;-46
2022/03/24 03:23:24;;;;;;;41.97;18.58;;;;;;;;;;5079057;28;20062;-46
2022/03/24 03:25:50;;;;;;;41.28;19.00;;;;;;;;;;5080306;28;20756;-46
2022/03/24 03:28:16;;;;;;;42.50;19.10;;;;;;;;;;5084419;28;20078;-50
2022/03/24 03:30:43;;;;;;;40.35;17.70;;;;;;;;;;5081981;28;20028;-47
2022/03/24 03:33:10;;;;;;;45.47;19.05;;;;;;;;;;5075916;28;20017;-46
2022/03/24 03:35:36;;;;;;;39.85;18.60;;;;;;;;;;5082292;28;20020;-47
2022/03/24 03:38:02;;;;;;;41.88;18.73;;;;;;;;;;5085336;28;20035;-47
2022/03/24 03:40:28;;;;;;;45.50;19.20;;;;;;;;;;5084426;28;20481;-47
2022/03/24 03:42:54;;;;;;;41.90;18.58;;;;;;;;;;5090670;28;20036;-47
2022/03/24 03:45:20;;;;;;;43.80;18.52;;;;;;;;;;5074100;28;20037;-46
2022/03/24 03:47:46;;;;;;;42.80;18.67;;;;;;;;;;5078597;28;20539;-49
2022/03/24 03:50:13;;;;;;;41.38;19.52;;;;;;;;;;5092835;28;20065;-46
2022/03/24 03:52:39;;;;;;;42.17;18.17;;;;;;;;;;5083505;28;20025;-46
2022/03/24 03:55:06;;;;;;;42.25;19.20;;;;;;;;;;5085186;28;20123;-48
2022/03/24 03:57:32;;;;;;;37.45;18.77;;;;;;;;;;5083028;28;20051;-46
2022/03/24 04:00:52;;;;;;;45.85;19.42;;;;;;;;;;5081846;28;20115;-48
2022/03/24 04:02:44;;;;;;;40.30;18.95;;;;;;;;;;5085321;28;20047;-46
2022/03/24 04:05:10;;;;;;;44.20;18.23;;;;;;;;;;5085794;28;20028;-46
2022/03/24 04:07:36;;;;;;;44.50;19.02;;;;;;;;;;5075683;28;20032;-47
2022/03/24 04:10:02;;;;;;;42.20;19.15;;;;;;;;;;5084531;28;20066;-48
2022/03/24 04:12:29;;;;;;;41.80;18.92;;;;;;;;;;5082708;28;20107;-51
2022/03/24 04:14:55;;;;;;;47.40;20.85;;;;;;;;;;5085200;28;20032;-51
2022/03/24 04:17:21;;;;;;;44.40;19.42;;;;;;;;;;5089337;28;20035;-46
2022/03/24 04:19:46;;;;;;;47.03;19.65;;;;;;;;;;5091551;28;20024;-47
2022/03/24 04:22:13;;;;;;;41.25;18.88;;;;;;;;;;5083901;28;20078;-49
2022/03/24 04:24:39;;;;;;;44.50;19.88;;;;;;;;;;5083745;28;20052;-46
2022/03/24 04:27:06;;;;;;;48.55;20.20;;;;;;;;;;5080410;28;20096;-46
2022/03/24 04:29:32;;;;;;;43.75;19.70;;;;;;;;;;5077049;28;20028;-46
2022/03/24 04:31:58;;;;;;;52.22;20.75;;;;;;;;;;5087602;28;20039;-46
2022/03/24 04:34:24;;;;;;;48.35;22.08;;;;;;;;;;5074861;28;20045;-46
2022/03/24 04:36:50;;;;;;;50.83;21.50;;;;;;;;;;5086174;28;20032;-46
2022/03/24 04:39:16;;;;;;;45.03;19.55;;;;;;;;;;5091047;28;20039;-46
2022/03/24 04:41:42;;;;;;;47.65;19.73;;;;;;;;;;5077949;28;20430;-48
2022/03/24 04:44:08;;;;;;;47.10;21.40;;;;;;;;;;5076284;28;20024;-48
2022/03/24 04:46:34;;;;;;;56.00;22.42;;;;;;;;;;5084364;28;20452;-46
2022/03/24 04:49:02;;;;;;;45.97;19.38;;;;;;;;;;5079411;28;20025;-47
2022/03/24 04:51:28;;;;;;;46.92;21.17;;;;;;;;;;5077165;28;20024;-46
2022/03/24 04:53:54;;;;;;;45.50;19.55;;;;;;;;;;5079901;28;20511;-50
2022/03/24 04:56:20;;;;;;;48.72;19.00;;;;;;;;;;5084387;28;20506;-46
2022/03/24 04:58:46;;;;;;;47.03;19.17;;;;;;;;;;5078140;28;20028;-48
2022/03/24 05:01:13;;;;;;;42.00;19.88;;;;;;;;;;5076713;28;21099;-46
2022/03/24 05:03:42;;;;;;;45.92;20.55;;;;;;;;;;5078859;28;20032;-49
2022/03/24 05:06:08;;;;;;;37.72;17.70;;;;;;;;;;5074336;28;20072;-46
2022/03/24 05:08:34;;;;;;;40.70;19.30;;;;;;;;;;5086786;28;20049;-47
2022/03/24 05:11:00;;;;;;;38.88;17.45;;;;;;;;;;5085644;28;20029;-47
2022/03/24 05:13:26;;;;;;;41.03;19.08;;;;;;;;;;5079400;28;20043;-46
2022/03/24 05:15:52;;;;;;;49.35;20.45;;;;;;;;;;5074555;28;20077;-48
2022/03/24 05:18:18;;;;;;;41.92;18.98;;;;;;;;;;5078192;28;20498;-46
2022/03/24 05:20:44;;;;;;;46.22;19.23;;;;;;;;;;5078695;28;20028;-48
2022/03/24 05:23:10;;;;;;;44.72;20.15;;;;;;;;;;5079393;28;20461;-47
2022/03/24 05:25:36;;;;;;;46.47;19.45;;;;;;;;;;5077793;28;20031;-47
2022/03/24 05:28:04;;;;;;;47.65;19.80;;;;;;;;;;5078639;28;20036;-46
2022/03/24 05:30:30;;;;;;;44.70;20.35;;;;;;;;;;5077643;28;20547;-47
2022/03/24 05:32:56;;;;;;;46.42;20.52;;;;;;;;;;5085383;28;20082;-47
2022/03/24 05:35:22;;;;;;;40.40;18.50;;;;;;;;;;5081304;28;20032;-46
2022/03/24 05:37:48;;;;;;;42.70;18.95;;;;;;;;;;5076463;28;20028;-46
2022/03/24 05:40:14;;;;;;;53.70;20.30;;;;;;;;;;5089119;28;20360;-47
2022/03/24 05:42:40;;;;;;;47.05;20.90;;;;;;;;;;5085971;28;20043;-46
2022/03/24 05:45:06;;;;;;;49.42;20.95;;;;;;;;;;5078448;28;20481;-46
2022/03/24 05:47:32;;;;;;;42.88;19.73;;;;;;;;;;5077628;28;20528;-46
2022/03/24 05:49:58;;;;;;;47.92;20.02;;;;;;;;;;5080765;28;20024;-45
2022/03/24 05:52:24;;;;;;;44.22;20.45;;;;;;;;;;5085575;28;20036;-50
2022/03/24 05:54:50;;;;;;;45.08;20.75;;;;;;;;;;5080439;28;20043;-46
2022/03/24 05:57:16;;;;;;;50.08;19.63;;;;;;;;;;5080579;28;20032;-46
2022/03/24 05:59:42;;;;;;;47.25;19.70;;;;;;;;;;5085759;28;20024;-48
2022/03/24 06:02:08;;;;;;;43.78;19.13;;;;;;;;;;5075068;28;20029;-47
2022/03/24 06:04:34;;;;;;;44.00;20.20;;;;;;;;;;5080434;28;20028;-47
2022/03/24 06:07:01;;;;;;;45.80;20.63;;;;;;;;;;5076657;28;20109;-46
2022/03/24 06:09:27;;;;;;;50.88;20.73;;;;;;;;;;5091441;28;20409;-46
2022/03/24 06:11:54;;;;;;;44.83;20.48;;;;;;;;;;5084668;28;20030;-46
2022/03/24 06:14:20;;;;;;;45.00;20.10;;;;;;;;;;5080687;28;20040;-46
2022/03/24 06:16:46;;;;;;;43.35;19.73;;;;;;;;;;5081190;28;20475;-46
2022/03/24 06:19:14;;;;;;;48.67;19.92;;;;;;;;;;5082785;28;20078;-49
2022/03/24 06:21:40;;;;;;;46.80;21.25;;;;;;;;;;5087075;28;20077;-46
2022/03/24 06:24:07;;;;;;;42.58;20.02;;;;;;;;;;5083910;28;20036;-47
2022/03/24 06:26:33;;;;;;;45.10;20.58;;;;;;;;;;5088490;28;20021;-47
2022/03/24 06:29:00;;;;;;;44.60;19.70;;;;;;;;;;5090557;28;20024;-47
2022/03/24 06:31:27;;;;;;;46.20;20.85;;;;;;;;;;5076892;28;20028;-48
2022/03/24 06:33:53;;;;;;;48.20;20.95;;;;;;;;;;5083708;28;20043;-48
2022/03/24 06:36:19;;;;;;;53.13;21.25;;;;;;;;;;5086801;28;20038;-46
2022/03/24 06:38:45;;;;;;;46.38;20.70;;;;;;;;;;5081793;28;20028;-49
2022/03/24 06:41:14;;;;;;;54.13;23.50;;;;;;;;;;5089844;28;20028;-47
2022/03/24 06:43:40;;;;;;;53.47;22.20;;;;;;;;;;5088967;28;20020;-46
2022/03/24 06:46:06;;;;;;;49.88;21.40;;;;;;;;;;5084697;28;20023;-47
2022/03/24 06:48:32;;;;;;;49.92;22.77;;;;;;;;;;5084849;28;20040;-47
2022/03/24 06:50:58;;;;;;;52.45;21.23;;;;;;;;;;5078199;28;20028;-45
2022/03/24 06:53:24;;;;;;;52.78;22.27;;;;;;;;;;5077123;28;20051;-47
2022/03/24 06:55:51;;;;;;;58.42;22.48;;;;;;;;;;5080522;28;20067;-45
2022/03/24 06:58:17;;;;;;;51.40;23.15;;;;;;;;;;5093508;28;20020;-46
2022/03/24 07:00:43;;;;;;;52.65;23.58;;;;;;;;;;5093675;28;20077;-46
2022/03/24 07:03:10;;;;;;;46.97;22.35;;;;;;;;;;5093090;28;20030;-49
2022/03/24 07:05:37;;;;;;;54.30;22.80;;;;;;;;;;5089179;28;20019;-46
2022/03/24 07:08:04;;;;;;;56.22;24.75;;;;;;;;;;5089727;28;20028;-46
2022/03/24 07:10:30;;;;;;;52.00;23.10;;;;;;;;;;5087808;28;20077;-46
2022/03/24 07:12:56;;;;;;;51.15;23.45;;;;;;;;;;5091711;28;20471;-46
2022/03/24 07:15:23;;;;;;;52.78;23.90;;;;;;;;;;5090575;28;20032;-47
2022/03/24 07:17:49;;;;;;;50.80;23.23;;;;;;;;;;5084359;28;20028;-50
2022/03/24 07:20:15;;;;;;;52.53;23.25;;;;;;;;;;5080039;28;20050;-46
2022/03/24 07:22:41;;;;;;;51.88;24.13;;;;;;;;;;5092855;28;20020;-46
2022/03/24 07:25:08;;;;;;;49.95;23.95;;;;;;;;;;5092544;28;20089;-48
2022/03/24 07:27:34;;;;;;;57.15;25.10;;;;;;;;;;5092437;28;20056;-46
2022/03/24 07:30:01;;;;;;;51.63;22.85;;;;;;;;;;5088172;28;20034;-45
2022/03/24 07:32:27;;;;;;;54.03;23.48;;;;;;;;;;5090879;28;20069;-46
2022/03/24 07:34:53;;;;;;;52.42;24.40;;;;;;;;;;5092388;28;20077;-45
2022/03/24 07:37:19;;;;;;;56.10;24.33;;;;;;;;;;5091131;28;20399;-47
2022/03/24 07:39:45;;;;;;;55.30;23.23;;;;;;;;;;5091675;28;20040;-46
2022/03/24 07:42:11;;;;;;;52.78;24.13;;;;;;;;;;5085691;28;20028;-47
2022/03/24 07:44:37;;;;;;;57.05;23.77;;;;;;;;;;5088134;28;20012;-47
2022/03/24 07:47:03;;;;;;;52.75;24.05;;;;;;;;;;5088034;28;20107;-47
2022/03/24 07:49:29;;;;;;;54.40;24.55;;;;;;;;;;5081767;28;20020;-45
2022/03/24 07:51:55;;;;;;;52.88;23.45;;;;;;;;;;5091977;28;20078;-47
2022/03/24 07:54:44;;;;;;;53.35;23.73;;;;;;;;;;5091510;28;20059;-48
2022/03/24 07:57:10;;;;;;;52.65;24.17;;;;;;;;;;5084829;28;20031;-48
2022/03/24 07:59:36;;;;;;;55.85;24.98;;;;;;;;;;5088450;28;20056;-47
2022/03/24 08:02:02;;;;;;;50.35;24.48;;;;;;;;;;5084858;28;20062;-46
2022/03/24 08:04:28;;;;;;;52.33;22.67;;;;;;;;;;5092413;28;20105;-49
2022/03/24 08:06:54;;;;;;;44.88;21.45;;;;;;;;;;5092556;28;20081;-46
2022/03/24 08:09:20;;;;;;;52.45;23.63;;;;;;;;;;5092644;28;20024;-46
2022/03/24 08:11:48;;;;;;;50.40;23.33;;;;;;;;;;5092280;28;20107;-46
2022/03/24 08:14:14;;;;;;;51.10;22.20;;;;;;;;;;5089337;28;20039;-47
2022/03/24 08:16:40;;;;;;;54.33;22.77;;;;;;;;;;5084035;28;20399;-50
2022/03/24 08:19:06;;;;;;;50.78;22.48;;;;;;;;;;5082082;28;20028;-48
2022/03/24 08:21:32;;;;;;;50.15;21.65;;;;;;;;;;5091985;28;20043;-46
2022/03/24 08:23:58;;;;;;;48.00;21.42;;;;;;;;;;5092312;28;20039;-50
2022/03/24 08:26:24;;;;;;;50.35;22.40;;;;;;;;;;5085888;28;20033;-50
2022/03/24 08:28:50;;;;;;;43.33;20.20;;;;;;;;;;5086095;28;20031;-47
2022/03/24 08:31:16;;;;;;;45.05;21.30;;;;;;;;;;5086513;28;20465;-46
2022/03/24 08:33:42;;;;;;;45.08;20.67;;;;;;;;;;5092241;28;20020;-46
2022/03/24 08:36:10;;;;;;;44.50;20.80;;;;;;;;;;5091499;28;20047;-47
2022/03/24 08:38:35;;;;;;;38.97;19.70;;;;;;;;;;5092181;28;20471;-46
2022/03/24 08:41:01;;;;;;;44.00;21.55;;;;;;;;;;5086758;28;20074;-46
2022/03/24 08:43:27;;;;;;;45.03;20.90;;;;;;;;;;5086335;28;20024;-46
2022/03/24 08:45:53;;;;;;;40.75;19.80;;;;;;;;;;5089123;28;20031;-47
2022/03/24 08:48:19;;;;;;;47.50;21.55;;;;;;;;;;5078664;28;20028;-46
2022/03/24 08:50:45;;;;;;;46.80;22.23;;;;;;;;;;5092089;28;20031;-52
2022/03/24 08:53:12;;;;;;;43.65;20.65;;;;;;;;;;5091218;28;20027;-47
2022/03/24 08:55:38;;;;;;;45.40;21.38;;;;;;;;;;5088745;28;20466;-46
2022/03/24 08:58:04;;;;;;;43.45;21.67;;;;;;;;;;5085893;28;20033;-47
2022/03/24 09:00:31;;;;;;;41.58;20.45;;;;;;;;;;5084854;28;20032;-46
2022/03/24 09:02:57;;;;;;;44.38;20.15;;;;;;;;;;5091561;28;20461;-46
2022/03/24 09:05:26;;;;;;;42.83;20.13;;;;;;;;;;5091898;28;20107;-47
2022/03/24 09:07:52;;;;;;;48.60;20.90;;;;;;;;;;5091471;28;20019;-47
2022/03/24 09:10:18;;;;;;;41.33;20.20;;;;;;;;;;5091581;28;20097;-47
2022/03/24 09:12:46;;;;;;;42.42;20.83;;;;;;;;;;5091320;28;20490;-47
2022/03/24 09:15:17;;;;;;;42.25;19.48;;;;;;;;;;5091922;28;20070;-49
2022/03/24 09:17:44;;;;;;;35.35;18.00;;;;;;;;;;5092029;28;20492;-50
2022/03/24 09:20:12;;;;;;;40.08;19.48;;;;;;;;;;5095113;28;20080;-46
2022/03/24 09:22:39;;;;;;;39.97;19.02;;;;;;;;;;5088757;28;20484;-46
2022/03/24 09:25:05;;;;;;;36.60;17.40;;;;;;;;;;5092791;28;20119;-46
2022/03/24 09:27:32;;;;;;;38.30;18.65;;;;;;;;;;5095560;28;20111;-47
2022/03/24 09:29:58;;;;;;;37.67;19.25;;;;;;;;;;5095591;28;20032;-47
2022/03/24 09:32:24;;;;;;;39.65;19.02;;;;;;;;;;5086903;28;20033;-47
2022/03/24 09:34:50;;;;;;;39.83;18.67;;;;;;;;;;5090708;28;20150;-46
2022/03/24 09:37:22;;;;;;;36.47;18.40;;;;;;;;;;5095421;28;20876;-46
2022/03/24 09:39:48;;;;;;;33.50;17.10;;;;;;;;;;5091434;28;20024;-50
2022/03/24 09:42:14;;;;;;;36.15;16.95;;;;;;;;;;5095097;28;20028;-47
2022/03/24 09:44:41;;;;;;;37.08;17.50;;;;;;;;;;5095541;28;20828;-50
2022/03/24 09:47:11;;;;;;;27.55;14.07;;;;;;;;;;5085742;28;20062;-51
2022/03/24 09:49:37;;;;;;;29.38;13.98;;;;;;;;;;5092917;28;20039;-46
2022/03/24 09:52:03;;;;;;;33.42;14.60;;;;;;;;;;5094925;28;20028;-46
2022/03/24 09:54:29;;;;;;;31.65;14.90;;;;;;;;;;5083694;28;20052;-46
2022/03/24 09:56:55;;;;;;;29.08;13.68;;;;;;;;;;5088107;28;20400;-47
2022/03/24 09:59:21;;;;;;;28.38;14.10;;;;;;;;;;5095157;28;20024;-47
2022/03/24 10:01:47;;;;;;;31.35;15.25;;;;;;;;;;5093547;28;20035;-46
2022/03/24 10:04:14;;;;;;;28.95;14.60;;;;;;;;;;5095325;28;20447;-46
2022/03/24 10:06:57;;;;;;;26.95;13.32;;;;;;;;;;5095063;28;20099;-48
2022/03/24 10:09:37;;;;;;;36.05;14.75;;;;;;;;;;5081769;28;20038;-51
2022/03/24 10:12:04;;;;;;;25.88;12.90;;;;;;;;;;5088519;28;20054;-49
2022/03/24 10:14:30;;;;;;;23.77;11.70;;;;;;;;;;5095171;28;20028;-46
2022/03/24 10:17:05;;;;;;;26.17;11.07;;;;;;;;;;5094753;28;20028;-49
2022/03/24 10:19:31;;;;;;;25.63;12.48;;;;;;;;;;5095369;28;20024;-47
2022/03/24 10:21:57;;;;;;;23.20;10.90;;;;;;;;;;5094804;28;20380;-47
2022/03/24 10:24:24;;;;;;;22.35;11.43;;;;;;;;;;5091207;28;20079;-47
2022/03/24 10:27:00;;;;;;;20.23;10.57;;;;;;;;;;5092484;28;20059;-47
2022/03/24 10:29:27;;;;;;;21.38;10.30;;;;;;;;;;5094477;28;20503;-47
2022/03/24 10:31:58;;;;;;;20.40;10.02;;;;;;;;;;5094839;28;20046;-47
2022/03/24 10:34:34;;;;;;;17.05;9.55;;;;;;;;;;5083276;28;20028;-49
2022/03/24 10:37:12;;;;;;;17.27;8.50;;;;;;;;;;5094772;28;20039;-49
2022/03/24 10:39:38;;;;;;;18.25;9.13;;;;;;;;;;5091319;28;20031;-47
2022/03/24 10:42:34;;;;;;;21.40;10.60;;;;;;;;;;5094474;28;20093;-47
2022/03/24 10:45:06;;;;;;;23.40;11.57;;;;;;;;;;5090179;28;20037;-47
2022/03/24 10:47:37;;;;;;;22.13;10.68;;;;;;;;;;5081779;28;20104;-48
2022/03/24 10:50:27;;;;;;;19.35;10.00;;;;;;;;;;5093222;28;20031;-48
2022/03/24 10:52:53;;;;;;;17.38;9.57;;;;;;;;;;5089703;28;20061;-47
2022/03/24 10:55:27;;;;;;;21.45;8.43;;;;;;;;;;5089875;28;20434;-47
2022/03/24 10:57:54;;;;;;;17.60;8.30;;;;;;;;;;5093911;28;20028;-48
2022/03/24 11:00:20;;;;;;;18.48;8.48;;;;;;;;;;5091894;28;20135;-46
2022/03/24 11:02:46;;;;;;;18.92;7.75;;;;;;;;;;5091719;28;20499;-47
2022/03/24 11:05:13;;;;;;;17.75;9.15;;;;;;;;;;5094567;28;20027;-47
2022/03/24 11:07:39;;;;;;;17.10;9.57;;;;;;;;;;5095082;28;20023;-48
2022/03/24 11:10:12;;;;;;;16.73;9.05;;;;;;;;;;5094669;28;20047;-48
2022/03/24 11:12:39;;;;;;;16.02;7.70;;;;;;;;;;5093504;28;20058;-49
2022/03/24 11:15:07;;;;;;;19.15;7.95;;;;;;;;;;5094617;28;20122;-47
2022/03/24 11:17:34;;;;;;;15.68;7.75;;;;;;;;;;5081069;28;20036;-49
2022/03/24 11:20:06;;;;;;;18.35;8.32;;;;;;;;;;5094028;28;20094;-50
2022/03/24 11:22:50;;;;;;;17.42;8.00;;;;;;;;;;5093505;28;20099;-47
2022/03/24 11:25:20;;;;;;;13.95;7.25;;;;;;;;;;5091689;28;20033;-48
2022/03/24 11:27:46;;;;;;;18.23;8.45;;;;;;;;;;5093018;28;20028;-47
2022/03/24 11:30:13;;;;;;;14.30;7.70;;;;;;;;;;5091692;28;20103;-48
2022/03/24 11:32:42;;;;;;;13.68;6.65;;;;;;;;;;5082928;28;20090;-48
2022/03/24 11:35:08;;;;;;;13.38;7.03;;;;;;;;;;5093208;28;20030;-46
2022/03/24 11:37:35;;;;;;;16.30;7.40;;;;;;;;;;5093229;28;20036;-46
2022/03/24 11:40:01;;;;;;;11.18;6.38;;;;;;;;;;5080124;28;20092;-46
2022/03/24 11:42:27;;;;;;;15.35;7.10;;;;;;;;;;5092205;28;20028;-46
2022/03/24 11:44:58;;;;;;;18.73;8.30;;;;;;;;;;5092984;28;20024;-46
2022/03/24 11:47:25;;;;;;;18.52;8.30;;;;;;;;;;5088176;28;20030;-47
2022/03/24 11:50:09;;;;;;;15.63;7.22;;;;;;;;;;5093242;28;20020;-45
2022/03/24 11:52:35;;;;;;;15.32;7.70;;;;;;;;;;5092665;28;20040;-45
2022/03/24 11:55:01;;;;;;;14.75;8.35;;;;;;;;;;5090498;28;20127;-46
2022/03/24 11:57:27;;;;;;;16.60;7.55;;;;;;;;;;5088134;28;20115;-48
2022/03/24 12:00:11;;;;;;;11.48;6.72;;;;;;;;;;5093135;28;20020;-47
2022/03/24 12:02:37;;;;;;;15.82;7.68;;;;;;;;;;5089750;28;20034;-45
2022/03/24 12:05:04;;;;;;;15.75;7.80;;;;;;;;;;5093114;28;20020;-45
2022/03/24 12:07:30;;;;;;;16.83;8.07;;;;;;;;;;5092937;28;20027;-45
2022/03/24 12:10:01;;;;;;;13.93;7.00;;;;;;;;;;5088162;28;20038;-46
2022/03/24 12:12:27;;;;;;;14.30;7.78;;;;;;;;;;5091740;28;20517;-50
2022/03/24 12:14:54;;;;;;;15.77;8.00;;;;;;;;;;5089322;28;20035;-48
2022/03/24 12:17:30;;;;;;;16.67;8.07;;;;;;;;;;5080134;28;20118;-50
2022/03/24 12:19:57;;;;;;;19.35;8.23;;;;;;;;;;5092192;28;20032;-47
2022/03/24 12:22:26;;;;;;;15.20;7.68;;;;;;;;;;5092039;28;20052;-48
2022/03/24 12:25:01;;;;;;;16.30;8.13;;;;;;;;;;5091544;28;20035;-49
2022/03/24 12:27:31;;;;;;;14.80;7.70;;;;;;;;;;5073855;28;20480;-46
2022/03/24 12:30:14;;;;;;;17.88;7.68;;;;;;;;;;5092104;28;20564;-50
2022/03/24 12:32:40;;;;;;;;;;;;;;;;;;5082602;28;20072;-45
2022/03/24 12:35:06;;;;;;;14.15;6.43;;;;;;;;;;5089389;28;19907;-47
2022/03/24 12:37:35;;;;;;;14.55;7.40;;;;;;;;;;5092315;28;20350;-45
2022/03/24 12:40:08;;;;;;;16.42;7.10;;;;;;;;;;5092075;28;20102;-46
2022/03/24 12:42:40;;;;;;;15.48;7.55;;;;;;;;;;5084586;28;20042;-47
2022/03/24 12:45:07;;;;;;;13.05;6.63;;;;;;;;;;5081871;28;20389;-48
2022/03/24 12:47:34;;;;;;;12.88;6.80;;;;;;;;;;5091271;28;20032;-48
2022/03/24 12:50:00;;;;;;;14.27;6.65;;;;;;;;;;5092101;28;20541;-47
2022/03/24 12:52:45;;;;;;;12.60;6.93;;;;;;;;;;5079574;28;20460;-48
2022/03/24 12:55:21;;;;;;;11.98;6.03;;;;;;;;;;5083881;28;20557;-45
2022/03/24 12:58:06;;;;;;;13.73;6.13;;;;;;;;;;5091681;28;20071;-45
2022/03/24 13:00:33;;;;;;;11.25;6.45;;;;;;;;;;5083760;28;20089;-46
2022/03/24 13:03:01;;;;;;;12.98;6.10;;;;;;;;;;5087461;28;20020;-47
2022/03/24 13:05:28;;;;;;;11.35;6.05;;;;;;;;;;5082832;28;20396;-46
2022/03/24 13:07:54;;;;;;;11.18;5.68;;;;;;;;;;5088159;28;20047;-45
2022/03/24 13:10:22;;;;;;;12.93;6.72;;;;;;;;;;5087310;28;20031;-45
2022/03/24 13:12:50;;;;;;;12.25;5.45;;;;;;;;;;5094869;28;20070;-51
2022/03/24 13:15:21;;;;;;;10.43;5.28;;;;;;;;;;5092155;28;20024;-47
2022/03/24 13:17:50;;;;;;;15.05;6.63;;;;;;;;;;5091719;28;20039;-45
2022/03/24 13:20:17;;;;;;;10.88;6.07;;;;;;;;;;5089549;28;20126;-50
2022/03/24 13:22:47;;;;;;;9.00;5.35;;;;;;;;;;5095181;28;20040;-49
2022/03/24 13:25:13;;;;;;;10.05;5.07;;;;;;;;;;5087397;28;20032;-45
2022/03/24 13:27:40;;;;;;;10.43;5.68;;;;;;;;;;5090201;28;20028;-47
2022/03/24 13:30:08;;;;;;;9.38;5.32;;;;;;;;;;5085939;28;20043;-45
2022/03/24 13:32:34;;;;;;;10.35;5.28;;;;;;;;;;5086097;28;20524;-49
2022/03/24 13:35:02;;;;;;;13.52;6.03;;;;;;;;;;5095496;28;20016;-49
2022/03/24 13:37:33;;;;;;;9.50;5.45;;;;;;;;;;5091186;28;20736;-45
2022/03/24 13:39:59;;;;;;;9.13;4.57;;;;;;;;;;5094155;28;20024;-46
2022/03/24 13:42:27;;;;;;;8.45;5.32;;;;;;;;;;5081693;28;20287;-47
2022/03/24 13:44:54;;;;;;;9.70;5.10;;;;;;;;;;5075177;28;20029;-45
2022/03/24 13:47:23;;;;;;;10.23;4.95;;;;;;;;;;5090320;28;20054;-46
2022/03/24 13:49:52;;;;;;;8.23;5.00;;;;;;;;;;5095705;28;20032;-46
2022/03/24 13:52:37;;;;;;;9.93;5.40;;;;;;;;;;5095547;28;20043;-46
2022/03/24 13:55:21;;;;;;;12.43;4.65;;;;;;;;;;5093540;28;20040;-46
2022/03/24 13:57:49;;;;;;;8.43;4.57;;;;;;;;;;5086157;28;20024;-49
2022/03/24 14:00:24;;;;;;;11.32;4.72;;;;;;;;;;5095689;28;20031;-46
2022/03/24 14:03:20;;;;;;;12.27;4.85;;;;;;;;;;5088605;28;20032;-46
2022/03/24 14:05:57;;;;;;;8.10;4.43;;;;;;;;;;5088909;28;20093;-47
2022/03/24 14:08:33;;;;;;;6.70;3.63;;;;;;;;;;5081632;28;20111;-46
2022/03/24 14:10:59;;;;;;;5.70;3.42;;;;;;;;;;5086424;28;20099;-46
2022/03/24 14:13:29;;;;;;;9.60;3.83;;;;;;;;;;5092389;28;20024;-45
2022/03/24 14:16:14;;;;;;;11.55;5.90;;;;;;;;;;5092778;28;20040;-46
2022/03/24 14:18:41;;;;;;;11.63;5.25;;;;;;;;;;5094308;28;20051;-49
2022/03/24 14:21:14;;;;;;;11.40;5.25;;;;;;;;;;5088522;28;20020;-46
2022/03/24 14:23:40;;;;;;;10.15;4.65;;;;;;;;;;5080412;28;20067;-51
2022/03/24 14:26:09;;;;;;;7.30;3.60;;;;;;;;;;5079026;28;20085;-48
2022/03/24 14:28:39;;;;;;;7.13;3.47;;;;;;;;;;5095371;28;20028;-46